Latest Coastal Weather Observations for Albion Park

IDN60701

Issued at 5:41 pm EDT Saturday 3 December 2016 (issued every 10 minutes, with the page automatically refreshed every 10 minutes)

About coastal observations | Map of coastal stations | Coastal observations for NSW | Marine services | Other Formats
Station Details ID: 068241 Name: WOLLONGONG AIRPORT Lat: -34.56 Lon: 150.79 Height: 8.0 m
Data from the previous 72 hours. | See also: Recent months at Albion Park
Date/Time
EDT
Temp
°C
Wind Pressure Rain since
9am
mm
Weather Cloud Vis
km
Sea
Height
m
Swell
Dir  Spd
kts
Gust
kts
hPa Trend Height
m
Period
s
Dir
03/05:30pm 22.8 NE 9 12 1014.2 - 0.0 - - 10 - - - -
03/05:00pm 22.9 NE 10 13 1014.3 - 0.0 - - 10 - - - -
03/04:30pm 23.4 NE 10 12 1014.2 - 0.0 - - 10 - - - -
03/04:00pm 23.3 NE 10 13 1014.5 - 0.0 - Partly cloudy 10 - - - -
03/03:30pm 23.2 NE 9 12 1014.9 - 0.0 - Cloudy 10 - - - -
03/03:00pm 23.5 NE 9 13 1015.1 - 0.0 - Cloudy 10 - - - -
03/02:30pm 24.0 E 10 13 1015.1 - 0.0 - Cloudy 10 - - - -
03/02:00pm 23.2 ENE 7 12 1015.4 - 0.0 - Cloudy 10 - - - -
03/01:30pm 23.7 E 9 13 1015.6 - 0.0 - Partly cloudy 10 - - - -
03/01:00pm 22.4 ESE 7 11 1015.8 - 0.0 - Cloudy 10 - - - -
03/12:30pm 23.0 E 8 14 1016.1 - 0.0 - Partly cloudy 10 - - - -
03/12:00pm 22.5 E 8 11 1016.3 - 0.0 - Cloudy 10 - - - -
03/11:47am 23.3 E 8 11 1016.2 - 0.0 - Partly cloudy 10 - - - -
03/11:37am 22.9 ESE 8 11 1016.2 - 0.0 - Partly cloudy 10 - - - -
03/11:36am 23.4 ESE 8 11 1016.2 - 0.0 - Partly cloudy 10 - - - -
03/11:30am 23.1 ESE 8 10 1016.2 - 0.0 - Partly cloudy 10 - - - -
03/11:00am 22.1 ESE 6 10 1016.5 - 0.0 - Partly cloudy 10 - - - -
03/10:30am 22.2 ESE 7 11 1016.5 - 0.0 - Partly cloudy 10 - - - -
03/10:07am 22.7 ENE 7 10 1016.6 - 0.0 - Partly cloudy 10 - - - -
03/10:01am 22.9 NE 6 10 1016.6 - 0.0 - Partly cloudy 10 - - - -
03/10:00am 22.7 NE 6 10 1016.6 - 0.0 - Partly cloudy 10 - - - -
03/09:30am 22.2 E 5 8 1016.6 - 0.0 - Partly cloudy 10 - - - -
03/09:26am 22.2 ESE 4 8 1016.6 - 0.0 - Partly cloudy 10 - - - -
03/09:12am 21.8 ESE 5 7 1016.7 - 0.0 - Partly cloudy 10 - - - -
03/09:00am 21.3 ESE 5 7 1016.6 - 0.0 - Cloudy 10 - - - -
03/08:30am 21.1 ESE 3 7 1016.6 - 0.0 - Cloudy 10 - - - -
03/08:05am 21.0 S 4 6 1016.3 - 0.0 - Partly cloudy 10 - - - -
03/08:00am 21.0 S 4 6 1016.3 - 0.0 - Partly cloudy 10 - - - -
03/07:30am 20.6 S 4 7 1016.1 - 0.0 - Partly cloudy 10 - - - -
03/07:00am 20.3 S 3 5 1015.8 - 0.0 - Cloudy 10 - - - -
03/06:30am 19.9 S 4 5 1015.5 - 0.0 - Cloudy 10 - - - -
03/06:00am 19.7 S 5 6 1015.1 - 0.0 - Cloudy 10 - - - -
03/05:30am 19.7 S 5 6 1014.8 - 0.0 - Cloudy 10 - - - -
03/05:00am 19.8 SSE 4 8 1014.4 - 0.0 - Cloudy 10 - - - -
03/04:30am 19.8 S 6 8 1014.0 - 0.0 - Cloudy 10 - - - -
03/04:00am 19.8 SSE 6 8 1013.9 - 0.0 - Partly cloudy 10 - - - -
03/03:30am 19.8 SSE 7 10 1013.8 - 0.0 - Partly cloudy 10 - - - -
03/03:15am 19.8 SSE 8 11 1013.7 - 0.0 - Partly cloudy 10 - - - -
03/03:00am 19.9 SSE 8 11 1013.6 - 0.0 - Cloudy 10 - - - -
03/02:30am 19.8 S 5 7 1013.8 - 0.0 - Cloudy 10 - - - -
03/02:00am 19.5 S 4 5 1014.2 - 0.0 - Cloudy 10 - - - -
03/01:30am 19.6 SSW 5 7 1014.2 - 0.0 - Partly cloudy 10 - - - -
03/01:20am 19.8 SSW 5 7 1014.3 - 0.0 - Partly cloudy 10 - - - -
03/01:00am 19.4 S 6 7 1014.3 - 0.0 - Partly cloudy 10 - - - -
03/12:30am 19.7 SSE 6 8 1014.7 - 0.0 - Partly cloudy 10 - - - -
03/12:00am 20.2 S 5 7 1014.7 - 0.0 - Mostly clear 10 - - - -
 
Date/Time
EDT
Temp
°C
Wind Pressure Rain since
9am
mm
Weather Cloud Vis
km
Sea
Height
m
Swell
Dir  Spd
kts
Gust
kts
hPa Trend Height
m
Period
s
Dir
02/11:30pm 20.6 SSW 6 9 1014.6 - 0.0 - Partly cloudy 10 - - - -
02/11:00pm 21.0 SSW 7 8 1014.3 - 0.0 - Partly cloudy 10 - - - -
02/10:30pm 21.1 S 8 11 1014.3 - 0.0 - - 10 - - - -
02/10:00pm 21.6 S 7 11 1014.0 - 0.0 - - 10 - - - -
02/09:30pm 22.0 S 6 8 1013.4 - 0.0 - - 10 - - - -
02/09:00pm 22.5 SSE 8 11 1012.7 - 0.0 - Mostly clear 10 - - - -
02/08:30pm 23.2 SSE 11 17 1012.2 - 0.0 - - 10 - - - -
02/08:00pm 23.6 SSE 12 17 1011.1 - 0.0 - - 10 - - - -
02/07:30pm 25.1 SSE 14 19 1010.0 - 0.0 - - 10 - - - -
02/07:00pm 27.3 SSE 14 19 1009.3 - 0.0 - - 10 - - - -
02/06:49pm 28.2 SSE 13 20 1009.2 - 0.0 - - 10 - - - -
02/06:30pm 33.2 W 11 15 1008.7 - 0.0 - - 10 - - - -
02/06:00pm 32.8 WSW 14 19 1008.3 - 0.0 - Partly cloudy 10 - - - -
02/05:30pm 33.2 W 17 25 1008.0 - 0.0 - - 10 - - - -
02/05:00pm 33.2 WSW 18 26 1007.8 - 0.0 - - 10 - - - -
02/04:30pm 33.7 W 11 18 1007.5 - 0.0 - - 10 - - - -
02/04:00pm 32.9 WSW 17 24 1007.8 - 0.0 - - 10 - - - -
02/03:30pm 33.4 W 18 25 1007.6 - 0.0 - - 10 - - - -
02/03:00pm 33.4 W 17 25 1007.3 - 0.0 - - 10 - - - -
02/02:37pm 34.0 W 12 25 1007.4 - 0.0 - - 10 - - - -
02/02:30pm 32.0 NNE 9 14 1007.6 - 0.0 - - 10 - - - -
02/02:00pm 30.0 NE 11 14 1007.3 - 0.0 - - 10 - - - -
02/01:30pm 29.8 NE 10 12 1007.3 - 0.0 - - 10 - - - -
02/01:00pm 28.2 NE 10 13 1007.4 - 0.0 - - 10 - - - -
02/12:30pm 29.4 ENE 11 14 1007.0 - 0.0 - - 10 - - - -
02/12:00pm 29.7 NE 13 14 1007.1 - 0.0 - - 10 - - - -
02/11:30am 30.9 ENE 10 13 1007.3 - 0.0 - - 10 - - - -
02/11:00am 30.1 NE 9 11 1007.4 - 0.0 - - 10 - - - -
02/10:30am 29.7 NE 7 8 1007.5 - 0.0 - - 10 - - - -
02/10:00am 27.5 ENE 7 8 1007.6 - 0.0 - - 10 - - - -
02/09:30am 26.3 ENE 6 9 1007.7 - 0.0 - - 10 - - - -
02/09:00am 25.7 ENE 5 7 1007.8 - 0.0 - - 10 - - - -
02/08:30am 24.4 ENE 3 6 1008.1 - 0.0 - - 10 - - - -
02/08:00am 22.3 CALM 0 3 1008.2 - 0.0 - - 10 - - - -
02/07:30am 20.6 CALM 0 0 1007.9 - 0.0 - - 10 - - - -
02/07:00am 17.7 CALM 0 0 1007.7 - 0.0 - - 10 - - - -
02/06:30am 16.2 CALM 0 0 1007.6 - 0.0 - - 10 - - - -
02/06:00am 14.1 W 4 5 1007.6 - 0.0 - - 10 - - - -
02/05:30am 13.4 W 2 5 1007.3 - 0.0 - - 10 - - - -
02/05:00am 12.8 W 5 6 1007.1 - 0.0 - - 10 - - - -
02/04:30am 13.0 W 4 5 1007.0 - 0.0 - - 10 - - - -
02/04:00am 13.8 CALM 0 0 1006.6 - 0.0 - - 10 - - - -
02/03:30am 14.0 CALM 0 0 1006.3 - 0.0 - - 10 - - - -
02/03:00am 14.4 CALM 0 0 1006.5 - 0.0 - - 10 - - - -
02/02:30am 14.5 W 1 3 1006.4 - 0.0 - - 10 - - - -
02/02:00am 14.4 W 3 5 1006.7 - 0.0 - - 10 - - - -
02/01:30am 15.3 WNW 1 3 1006.8 - 0.0 - - 10 - - - -
02/01:00am 15.7 WNW 1 4 1006.8 - 0.0 - - 10 - - - -
02/12:30am 15.7 W 4 6 1007.1 - 0.0 - - 10 - - - -
02/12:00am 17.0 WSW 2 4 1007.2 - 0.0 - - 10 - - - -
 
Date/Time
EDT
Temp
°C
Wind Pressure Rain since
9am
mm
Weather Cloud Vis
km
Sea
Height
m
Swell
Dir  Spd
kts
Gust
kts
hPa Trend Height
m
Period
s
Dir
01/11:30pm 17.7 WSW 3 5 1007.3 - 0.0 - - 10 - - - -
01/11:00pm 18.8 W 3 7 1007.1 - 0.0 - - 10 - - - -
01/10:30pm 20.3 NW 6 6 1007.1 - 0.0 - - 10 - - - -
01/10:00pm 20.7 NW 4 7 1007.0 - 0.0 - - 10 - - - -
01/09:30pm 21.3 W 7 8 1006.8 - 0.0 - - 10 - - - -
01/09:00pm 20.6 W 7 9 1006.6 - 0.0 - - 10 - - - -
01/08:30pm 21.5 WSW 8 9 1006.4 - 0.0 - - 10 - - - -
01/08:00pm 23.7 WNW 6 8 1006.3 - 0.0 - - 10 - - - -
01/07:30pm 25.7 WNW 5 6 1006.0 - 0.0 - Partly cloudy 10 - - - -
01/07:00pm 26.9 NNW 4 5 1005.6 - 0.0 - Partly cloudy 10 - - - -
01/06:30pm 27.0 ENE 9 11 1005.1 - 0.0 - - 10 - - - -
01/06:00pm 26.0 ENE 7 11 1005.0 - 0.0 - Partly cloudy 10 - - - -
01/05:30pm 26.1 NE 8 11 1005.0 - 0.0 - Partly cloudy 10 - - - -
01/05:00pm 27.9 ESE 5 7 1004.8 - 0.0 - Partly cloudy 10 - - - -
01/04:30pm 25.8 ENE 4 6 1005.2 - 0.0 - Partly cloudy 10 - - - -
01/04:00pm 26.2 ENE 9 12 1005.4 - 0.0 - Partly cloudy 10 - - - -
01/03:30pm 25.3 ENE 9 12 1005.2 - 0.0 - - 10 - - - -
01/03:00pm 27.3 ENE 10 12 1005.3 - 0.0 - Partly cloudy 10 - - - -
01/02:30pm 26.9 NE 12 15 1005.2 - 0.0 - - 10 - - - -
01/02:00pm 26.9 NE 11 14 1005.5 - 0.0 - - 10 - - - -
01/01:30pm 26.2 NE 11 13 1005.4 - 0.0 - - 10 - - - -
01/01:00pm 27.4 NE 9 13 1005.5 - 0.0 - - 10 - - - -
01/12:30pm 26.9 NE 9 13 1005.7 - 0.0 - Partly cloudy 10 - - - -
01/12:00pm 25.6 NE 10 11 1006.0 - 0.0 - - 10 - - - -
01/11:30am 25.5 NE 11 13 1006.2 - 0.0 - - 10 - - - -
01/11:00am 25.5 NE 10 13 1006.5 - 0.0 - - 10 - - - -
01/10:30am 25.7 NE 7 9 1006.9 - 0.0 - - 10 - - - -
01/10:00am 24.9 NE 6 9 1007.2 - 0.0 - - 10 - - - -
01/09:30am 24.7 WSW 2 4 1007.3 - 0.0 - - 10 - - - -
01/09:00am 22.8 WSW 4 5 1007.3 - 1.8 - Mostly clear 10 - - - -
01/08:30am 19.5 WSW 7 9 1007.5 - 1.8 - - 10 - - - -
01/08:00am 18.4 WSW 7 7 1007.6 - 1.8 - - 10 - - - -
01/07:30am 19.0 SSW 1 3 1007.2 - 1.8 - - 10 - - - -
01/07:00am 17.8 S 4 6 1006.9 - 1.8 - - 10 - - - -
01/06:30am 17.0 CALM 0 0 1006.6 - 1.8 - - 10 - - - -
01/06:00am 16.4 NW 2 4 1006.3 - 1.8 - Cloudy 10 - - - -
01/05:30am 15.7 CALM 0 0 1006.1 - 1.8 - - 10 - - - -
01/05:00am 16.0 ENE 1 3 1006.2 - 1.8 - - 10 - - - -
01/04:30am 15.9 SSE 2 5 1006.4 - 1.8 - - 10 - - - -
01/04:00am 15.8 S 4 6 1006.6 - 1.8 - - 10 - - - -
01/03:30am 16.1 W 4 7 1006.4 - 1.8 - - 10 - - - -
01/03:00am 15.8 WSW 1 4 1006.6 - 1.8 - - 10 - - - -
01/02:30am 16.1 WSW 2 4 1007.1 - 1.8 - - 10 - - - -
01/02:15am 15.5 WSW 6 9 1007.2 - 1.8 - - 9 - - - -
01/02:00am 15.6 WSW 5 8 1007.2 - 1.8 - - 5 - - - -
01/01:59am 15.5 WSW 5 8 1007.3 - 1.8 - - 5 - - - -
01/01:55am 16.2 WSW 3 5 1007.4 - 1.8 - - 6 - - - -
01/01:40am 16.2 WSW 3 5 1007.5 - 1.8 - - 5 - - - -
01/01:30am 16.6 WSW 3 6 1007.7 - 1.8 - - 7 - - - -
01/01:00am 16.9 NW 5 7 1008.1 - 1.8 - - 10 - - - -
01/12:30am 16.9 NW 3 5 1008.3 - 1.8 - - 10 - - - -
01/12:08am 17.6 WNW 4 6 1008.7 - 1.8 - Partly cloudy 10 - - - -
01/12:00am 17.8 WNW 4 5 1008.8 - 1.8 Rain Partly cloudy 10 - - - -
 
Date/Time
EDT
Temp
°C
Wind Pressure Rain since
9am
mm
Weather Cloud Vis
km
Sea
Height
m
Swell
Dir  Spd
kts
Gust
kts
hPa Trend Height
m
Period
s
Dir
30/11:30pm 18.3 WNW 5 6 1009.2 - 1.6 - Cloudy 10 - - - -
30/11:01pm 18.1 W 4 6 1009.4 - 1.6 - Partly cloudy 10 - - - -
30/11:00pm 18.1 WNW 5 6 1009.4 - 1.6 - Partly cloudy 10 - - - -
30/10:30pm 18.0 W 6 7 1009.3 - 1.6 - Partly cloudy 10 - - - -
30/10:00pm 18.2 WSW 3 4 1009.2 - 1.6 - - 10 - - - -
30/09:30pm 18.8 NW 5 6 1009.0 - 1.6 - - 10 - - - -
30/09:00pm 20.2 N 4 6 1009.0 - 1.6 - Cloudy 10 - - - -
30/08:30pm 19.9 SW 6 10 1008.6 - 1.6 - Cloudy 10 - - - -
30/08:00pm 19.7 WSW 7 9 1009.2 - 1.6 - Cloudy 10 - - - -
30/07:30pm 20.5 NNE 9 12 1008.4 - 1.6 - Partly cloudy 10 - - - -
30/07:25pm 20.6 N 8 12 1008.5 - 1.6 - Partly cloudy 10 - - - -
30/07:00pm 20.8 NNW 8 11 1008.6 - 1.6 - Partly cloudy 10 - - - -
30/06:52pm 20.7 NW 9 11 1008.7 - 1.6 - Partly cloudy 10 - - - -
30/06:30pm 20.9 NNE 12 20 1008.0 - 1.6 - Partly cloudy 10 - - - -
30/06:19pm 20.7 ENE 16 23 1007.6 - 1.6 - Cloudy 7 - - - -
30/06:00pm 20.6 NNE 8 14 1009.7 - 0.6 Rain Cloudy 6 - - - -

Other Formats:

Comma delimited format used in spreadsheet applications
http://www.bom.gov.au/fwo/IDN60701/IDN60701.95748.axf

JavaScript Object Notation format (JSON) in row-major order
http://www.bom.gov.au/fwo/IDN60701/IDN60701.95748.json